Search for airport 
image banner adimage banner adimage banner ad
image banner ad

8PS2 - Still Meadow Farm

Located in Jackson Center, United States

ICAO - 8PS2, IATA -

Data provided by Airmate  

General information

Coordinates: N41°18'38" W80°9'46"
Elevation is 1370 feet MSL.
Magnetic variation is -08° East
View others Airports in Pennsylvania

Operational data

Special qualification required
Current time UTC:
Current local time:
Weather at : KFKL - Venango Rgnl ( 26 km )
METAR: KFKL 182356Z AUTO 27004KT 10SM CLR 22/07 A3029 RMK AO2 SLP256 T02220072 10256 20222 55004
TAF: KFKL 182320Z 1900/1924 VRB03KT P6SM SKC FM191500 17005KT P6SM SCT250
View NOTAMs / SUP AIP / TFR affecting this airport [VIEW]
Communications frequencies: [VIEW]

Runways:

RWY identifierQFULength (ft)Width (ft)SurfaceLDA (ft)
04185665GRASS
22185665GRASS

Airport contact information

Address: Jackson Center United States

Satellite view of 8PS2